sensor_id;sensor_type;location;lat;lon;timestamp;pressure;altitude;pressure_sealevel;temperature;humidity
14689;BME280;7432;48.728;9.154;2024-03-29T00:00:46;143294.84;;;5.91;67.96
14689;BME280;7432;48.728;9.154;2024-03-29T00:03:12;143308.09;;;5.97;67.65
14689;BME280;7432;48.728;9.154;2024-03-29T00:05:38;143330.97;;;6.07;66.52
14689;BME280;7432;48.728;9.154;2024-03-29T00:08:05;143339.44;;;6.10;67.24
14689;BME280;7432;48.728;9.154;2024-03-29T00:10:31;143376.78;;;6.26;65.80
14689;BME280;7432;48.728;9.154;2024-03-29T00:12:57;143393.72;;;6.33;65.95
14689;BME280;7432;48.728;9.154;2024-03-29T00:15:22;143392.50;;;6.32;65.90
14689;BME280;7432;48.728;9.154;2024-03-29T00:17:48;143406.97;;;6.38;64.43
14689;BME280;7432;48.728;9.154;2024-03-29T00:20:13;143417.81;;;6.43;64.43
14689;BME280;7432;48.728;9.154;2024-03-29T00:22:39;143406.97;;;6.38;65.14
14689;BME280;7432;48.728;9.154;2024-03-29T00:25:06;143387.69;;;6.30;66.10
14689;BME280;7432;48.728;9.154;2024-03-29T00:27:32;143387.69;;;6.30;65.33
14689;BME280;7432;48.728;9.154;2024-03-29T00:29:58;143390.06;;;6.31;65.64
14689;BME280;7432;48.728;9.154;2024-03-29T00:32:23;143397.31;;;6.34;64.96
14689;BME280;7432;48.728;9.154;2024-03-29T00:34:50;143391.28;;;6.32;64.73
14689;BME280;7432;48.728;9.154;2024-03-29T00:37:16;143420.25;;;6.44;65.24
14689;BME280;7432;48.728;9.154;2024-03-29T00:39:41;143434.72;;;6.50;64.82
14689;BME280;7432;48.728;9.154;2024-03-29T00:42:08;143425.06;;;6.46;65.26
14689;BME280;7432;48.728;9.154;2024-03-29T00:44:34;143411.78;;;6.40;66.22
14689;BME280;7432;48.728;9.154;2024-03-29T00:46:59;143394.91;;;6.33;66.55
14689;BME280;7432;48.728;9.154;2024-03-29T00:49:25;143406.97;;;6.38;66.51
14689;BME280;7432;48.728;9.154;2024-03-29T00:51:50;143404.53;;;6.37;66.27
14689;BME280;7432;48.728;9.154;2024-03-29T00:54:16;143396.09;;;6.34;66.85
14689;BME280;7432;48.728;9.154;2024-03-29T00:56:41;143399.72;;;6.35;66.58
14689;BME280;7432;48.728;9.154;2024-03-29T00:59:08;143425.06;;;6.46;66.39
14689;BME280;7432;48.728;9.154;2024-03-29T01:01:34;143440.75;;;6.52;65.25
14689;BME280;7432;48.728;9.154;2024-03-29T01:03:59;143457.63;;;6.60;65.87
14689;BME280;7432;48.728;9.154;2024-03-29T01:06:24;143473.31;;;6.66;65.33
14689;BME280;7432;48.728;9.154;2024-03-29T01:08:50;143457.63;;;6.60;66.08
14689;BME280;7432;48.728;9.154;2024-03-29T01:11:15;143458.81;;;6.60;65.45
14689;BME280;7432;48.728;9.154;2024-03-29T01:13:41;143468.44;;;6.64;65.07
14689;BME280;7432;48.728;9.154;2024-03-29T01:16:08;143488.97;;;6.73;64.36
14689;BME280;7432;48.728;9.154;2024-03-29T01:18:33;143503.44;;;6.79;64.18
14689;BME280;7432;48.728;9.154;2024-03-29T01:20:59;143487.75;;;6.72;65.33
14689;BME280;7432;48.728;9.154;2024-03-29T01:23:24;143473.31;;;6.66;64.25
14689;BME280;7432;48.728;9.154;2024-03-29T01:25:50;143467.28;;;6.64;65.64
14689;BME280;7432;48.728;9.154;2024-03-29T01:28:15;143473.31;;;6.66;65.49
14689;BME280;7432;48.728;9.154;2024-03-29T01:30:41;143475.69;;;6.67;64.75
14689;BME280;7432;48.728;9.154;2024-03-29T01:33:08;143481.72;;;6.70;64.70
14689;BME280;7432;48.728;9.154;2024-03-29T01:35:33;143475.69;;;6.67;64.43
14689;BME280;7432;48.728;9.154;2024-03-29T01:37:59;143462.44;;;6.62;64.96
14689;BME280;7432;48.728;9.154;2024-03-29T01:40:24;143461.25;;;6.61;65.32
14689;BME280;7432;48.728;9.154;2024-03-29T01:42:53;143472.09;;;6.66;64.44
14689;BME280;7432;48.728;9.154;2024-03-29T01:45:18;143505.88;;;6.80;64.13
14689;BME280;7432;48.728;9.154;2024-03-29T01:47:45;143503.44;;;6.79;64.34
14689;BME280;7432;48.728;9.154;2024-03-29T01:50:13;143504.66;;;6.79;63.92
14689;BME280;7432;48.728;9.154;2024-03-29T01:52:39;143515.50;;;6.84;63.64
14689;BME280;7432;48.728;9.154;2024-03-29T01:55:07;143531.22;;;6.90;63.06
14689;BME280;7432;48.728;9.154;2024-03-29T01:57:33;143531.22;;;6.90;63.51
14689;BME280;7432;48.728;9.154;2024-03-29T01:59:59;143536.03;;;6.92;63.39
14689;BME280;7432;48.728;9.154;2024-03-29T02:02:30;143544.47;;;6.96;63.51
14689;BME280;7432;48.728;9.154;2024-03-29T02:04:57;143573.41;;;7.08;62.03
14689;BME280;7432;48.728;9.154;2024-03-29T02:07:25;143578.28;;;7.10;62.31
14689;BME280;7432;48.728;9.154;2024-03-29T02:09:51;143586.69;;;7.13;61.95
14689;BME280;7432;48.728;9.154;2024-03-29T02:12:18;143589.13;;;7.14;62.17
14689;BME280;7432;48.728;9.154;2024-03-29T02:14:44;143609.63;;;7.23;61.95
14689;BME280;7432;48.728;9.154;2024-03-29T02:17:11;143609.63;;;7.23;61.42
14689;BME280;7432;48.728;9.154;2024-03-29T02:19:37;143616.88;;;7.26;61.64
14689;BME280;7432;48.728;9.154;2024-03-29T02:22:03;143619.25;;;7.27;61.92
14689;BME280;7432;48.728;9.154;2024-03-29T02:24:33;143606.00;;;7.22;62.99
14689;BME280;7432;48.728;9.154;2024-03-29T02:26:59;143607.22;;;7.22;61.35
14689;BME280;7432;48.728;9.154;2024-03-29T02:29:26;143633.75;;;7.33;61.60
14689;BME280;7432;48.728;9.154;2024-03-29T02:31:52;143614.44;;;7.25;61.95
14689;BME280;7432;48.728;9.154;2024-03-29T02:34:19;143602.41;;;7.20;62.91
14689;BME280;7432;48.728;9.154;2024-03-29T02:36:45;143597.56;;;7.18;62.91
14689;BME280;7432;48.728;9.154;2024-03-29T02:39:11;143593.94;;;7.16;61.32
14689;BME280;7432;48.728;9.154;2024-03-29T02:41:39;143603.59;;;7.21;62.00
14689;BME280;7432;48.728;9.154;2024-03-29T02:44:05;143592.72;;;7.16;61.50
14689;BME280;7432;48.728;9.154;2024-03-29T02:46:32;143581.88;;;7.11;62.27
14689;BME280;7432;48.728;9.154;2024-03-29T02:48:58;143585.53;;;7.13;61.80
14689;BME280;7432;48.728;9.154;2024-03-29T02:51:23;143579.44;;;7.10;62.29
14689;BME280;7432;48.728;9.154;2024-03-29T02:53:50;143585.53;;;7.13;62.12
14689;BME280;7432;48.728;9.154;2024-03-29T02:56:15;143571.03;;;7.07;64.07
14689;BME280;7432;48.728;9.154;2024-03-29T02:58:47;143565.00;;;7.04;63.17
14689;BME280;7432;48.728;9.154;2024-03-29T03:01:12;143569.81;;;7.06;62.46
14689;BME280;7432;48.728;9.154;2024-03-29T03:03:39;143543.25;;;6.95;63.84
14689;BME280;7432;48.728;9.154;2024-03-29T03:06:05;143555.31;;;7.00;63.70
14689;BME280;7432;48.728;9.154;2024-03-29T03:08:31;143548.06;;;6.97;63.37
14689;BME280;7432;48.728;9.154;2024-03-29T03:11:15;143516.72;;;6.84;63.94
14689;BME280;7432;48.728;9.154;2024-03-29T03:13:42;143577.06;;;7.09;62.65
14689;BME280;7432;48.728;9.154;2024-03-29T03:16:10;143575.84;;;7.09;64.60
14689;BME280;7432;48.728;9.154;2024-03-29T03:18:36;143569.81;;;7.06;63.82
14689;BME280;7432;48.728;9.154;2024-03-29T03:21:01;143597.56;;;7.18;62.17
14689;BME280;7432;48.728;9.154;2024-03-29T03:23:28;143601.19;;;7.20;62.58
14689;BME280;7432;48.728;9.154;2024-03-29T03:25:54;143601.19;;;7.20;62.46
14689;BME280;7432;48.728;9.154;2024-03-29T03:28:21;143591.53;;;7.15;64.09
14689;BME280;7432;48.728;9.154;2024-03-29T03:30:47;143590.34;;;7.15;64.16
14689;BME280;7432;48.728;9.154;2024-03-29T03:33:14;143587.91;;;7.14;66.34
14689;BME280;7432;48.728;9.154;2024-03-29T03:35:41;143590.34;;;7.15;64.62
14689;BME280;7432;48.728;9.154;2024-03-29T03:38:06;143585.53;;;7.13;67.17
14689;BME280;7432;48.728;9.154;2024-03-29T03:40:33;143583.09;;;7.12;65.96
14689;BME280;7432;48.728;9.154;2024-03-29T03:42:58;143585.53;;;7.13;67.54
14689;BME280;7432;48.728;9.154;2024-03-29T03:45:25;143533.59;;;6.91;68.63
14689;BME280;7432;48.728;9.154;2024-03-29T03:47:50;143585.53;;;7.13;68.01
14689;BME280;7432;48.728;9.154;2024-03-29T03:50:18;143601.19;;;7.20;67.15
14689;BME280;7432;48.728;9.154;2024-03-29T03:52:43;143603.59;;;7.21;67.24
14689;BME280;7432;48.728;9.154;2024-03-29T03:55:09;143601.19;;;7.20;66.16
14689;BME280;7432;48.728;9.154;2024-03-29T03:57:35;143601.19;;;7.20;64.83
14689;BME280;7432;48.728;9.154;2024-03-29T04:00:01;143597.56;;;7.18;65.24
14689;BME280;7432;48.728;9.154;2024-03-29T04:02:28;143612.03;;;7.24;64.42
14689;BME280;7432;48.728;9.154;2024-03-29T04:04:55;143603.59;;;7.21;63.73
14689;BME280;7432;48.728;9.154;2024-03-29T04:07:21;143608.41;;;7.23;65.73
14689;BME280;7432;48.728;9.154;2024-03-29T04:09:50;143613.22;;;7.25;65.68
14689;BME280;7432;48.728;9.154;2024-03-29T04:12:15;143612.03;;;7.24;64.89
14689;BME280;7432;48.728;9.154;2024-03-29T04:14:42;143608.41;;;7.23;65.15
14689;BME280;7432;48.728;9.154;2024-03-29T04:17:07;143606.00;;;7.22;64.72
14689;BME280;7432;48.728;9.154;2024-03-29T04:19:33;143608.41;;;7.23;65.62
14689;BME280;7432;48.728;9.154;2024-03-29T04:21:59;143612.03;;;7.24;65.34
14689;BME280;7432;48.728;9.154;2024-03-29T04:24:27;143671.16;;;7.49;61.47
14689;BME280;7432;48.728;9.154;2024-03-29T04:26:53;143692.91;;;7.58;60.22
14689;BME280;7432;48.728;9.154;2024-03-29T04:29:19;143783.44;;;7.96;56.94
14689;BME280;7432;48.728;9.154;2024-03-29T04:31:44;143796.72;;;8.01;58.05
14689;BME280;7432;48.728;9.154;2024-03-29T04:34:11;143814.84;;;8.09;57.38
14689;BME280;7432;48.728;9.154;2024-03-29T04:36:37;143828.13;;;8.14;57.41
14689;BME280;7432;48.728;9.154;2024-03-29T04:39:03;143832.97;;;8.16;57.71
14689;BME280;7432;48.728;9.154;2024-03-29T04:41:31;143801.53;;;8.03;59.57
14689;BME280;7432;48.728;9.154;2024-03-29T04:43:59;143782.22;;;7.95;60.88
14689;BME280;7432;48.728;9.154;2024-03-29T04:46:25;143770.16;;;7.90;62.03
14689;BME280;7432;48.728;9.154;2024-03-29T04:48:52;143766.56;;;7.89;61.10
14689;BME280;7432;48.728;9.154;2024-03-29T04:51:18;143766.56;;;7.89;60.99
14689;BME280;7432;48.728;9.154;2024-03-29T04:53:44;143800.38;;;8.03;60.88
14689;BME280;7432;48.728;9.154;2024-03-29T04:56:11;143782.22;;;7.95;60.96
14689;BME280;7432;48.728;9.154;2024-03-29T04:58:39;143771.38;;;7.91;63.00
14689;BME280;7432;48.728;9.154;2024-03-29T05:01:05;143732.75;;;7.74;63.76
14689;BME280;7432;48.728;9.154;2024-03-29T05:03:32;143732.75;;;7.74;63.17
14689;BME280;7432;48.728;9.154;2024-03-29T05:05:58;143725.50;;;7.71;64.16
14689;BME280;7432;48.728;9.154;2024-03-29T05:08:25;143715.88;;;7.67;64.31
14689;BME280;7432;48.728;9.154;2024-03-29T05:10:51;143708.63;;;7.64;65.59
14689;BME280;7432;48.728;9.154;2024-03-29T05:13:18;143741.22;;;7.78;63.73
14689;BME280;7432;48.728;9.154;2024-03-29T05:15:46;143732.75;;;7.74;65.24
14689;BME280;7432;48.728;9.154;2024-03-29T05:18:13;143721.91;;;7.70;66.77
14689;BME280;7432;48.728;9.154;2024-03-29T05:20:39;143718.25;;;7.68;66.57
14689;BME280;7432;48.728;9.154;2024-03-29T05:23:12;143709.81;;;7.65;66.23
14689;BME280;7432;48.728;9.154;2024-03-29T05:25:39;143703.75;;;7.62;67.86
14689;BME280;7432;48.728;9.154;2024-03-29T05:28:05;143708.63;;;7.64;67.53
14689;BME280;7432;48.728;9.154;2024-03-29T05:30:32;143707.41;;;7.64;66.27
14689;BME280;7432;48.728;9.154;2024-03-29T05:33:02;143718.25;;;7.68;67.27
14689;BME280;7432;48.728;9.154;2024-03-29T05:35:28;143727.94;;;7.72;67.95
14689;BME280;7432;48.728;9.154;2024-03-29T05:37:55;143748.47;;;7.81;67.79
14689;BME280;7432;48.728;9.154;2024-03-29T05:40:21;143748.47;;;7.81;66.68
14689;BME280;7432;48.728;9.154;2024-03-29T05:42:50;143753.28;;;7.83;66.19
14689;BME280;7432;48.728;9.154;2024-03-29T05:45:23;143752.06;;;7.83;67.00
14689;BME280;7432;48.728;9.154;2024-03-29T05:47:50;143779.84;;;7.94;66.35
14689;BME280;7432;48.728;9.154;2024-03-29T05:50:18;143794.34;;;8.00;66.04
14689;BME280;7432;48.728;9.154;2024-03-29T05:52:44;143817.25;;;8.10;66.08
14689;BME280;7432;48.728;9.154;2024-03-29T05:55:10;143836.59;;;8.18;65.65
14689;BME280;7432;48.728;9.154;2024-03-29T05:57:37;143847.44;;;8.22;66.16
14689;BME280;7432;48.728;9.154;2024-03-29T06:00:07;143825.72;;;8.13;66.30
14689;BME280;7432;48.728;9.154;2024-03-29T06:02:34;143854.69;;;8.25;65.46
14689;BME280;7432;48.728;9.154;2024-03-29T06:05:00;143874.06;;;8.33;62.33
14689;BME280;7432;48.728;9.154;2024-03-29T06:07:29;143887.34;;;8.39;61.06
14689;BME280;7432;48.728;9.154;2024-03-29T06:09:56;143898.25;;;8.44;60.68
14689;BME280;7432;48.728;9.154;2024-03-29T06:12:22;143929.66;;;8.57;58.61
14689;BME280;7432;48.728;9.154;2024-03-29T06:14:48;144010.63;;;8.90;56.72
14689;BME280;7432;48.728;9.154;2024-03-29T06:17:32;144074.66;;;9.17;55.96
14689;BME280;7432;48.728;9.154;2024-03-29T06:20:00;144100.03;;;9.28;54.46
14689;BME280;7432;48.728;9.154;2024-03-29T06:22:30;144103.66;;;9.29;53.90
14689;BME280;7432;48.728;9.154;2024-03-29T06:24:56;144123.00;;;9.37;54.58
14689;BME280;7432;48.728;9.154;2024-03-29T06:27:24;144115.72;;;9.34;54.55
14689;BME280;7432;48.728;9.154;2024-03-29T06:29:51;144119.38;;;9.36;54.81
14689;BME280;7432;48.728;9.154;2024-03-29T06:32:17;144137.50;;;9.43;54.52
14689;BME280;7432;48.728;9.154;2024-03-29T06:34:44;144121.81;;;9.37;54.74
14689;BME280;7432;48.728;9.154;2024-03-29T06:37:11;144112.13;;;9.33;55.08
14689;BME280;7432;48.728;9.154;2024-03-29T06:39:38;144103.66;;;9.29;55.55
14689;BME280;7432;48.728;9.154;2024-03-29T06:42:05;144160.50;;;9.53;54.56
14689;BME280;7432;48.728;9.154;2024-03-29T06:44:33;144187.09;;;9.64;55.30
14689;BME280;7432;48.728;9.154;2024-03-29T06:46:59;144242.72;;;9.87;54.99
14689;BME280;7432;48.728;9.154;2024-03-29T06:49:26;144269.31;;;9.98;54.17
14689;BME280;7432;48.728;9.154;2024-03-29T06:51:52;144270.53;;;9.99;53.50
14689;BME280;7432;48.728;9.154;2024-03-29T06:54:19;144268.09;;;9.98;54.07
14689;BME280;7432;48.728;9.154;2024-03-29T06:56:48;144260.84;;;9.95;53.84
14689;BME280;7432;48.728;9.154;2024-03-29T06:59:15;144269.31;;;9.98;54.07
14689;BME280;7432;48.728;9.154;2024-03-29T07:01:41;144260.84;;;9.95;56.29
14689;BME280;7432;48.728;9.154;2024-03-29T07:04:07;144263.28;;;9.96;57.40
14689;BME280;7432;48.728;9.154;2024-03-29T07:06:34;144281.41;;;10.03;57.19
14689;BME280;7432;48.728;9.154;2024-03-29T07:09:02;144303.25;;;10.13;58.46
14689;BME280;7432;48.728;9.154;2024-03-29T07:11:29;144294.72;;;10.09;57.15
14689;BME280;7432;48.728;9.154;2024-03-29T07:13:57;144318.94;;;10.19;56.88
14689;BME280;7432;48.728;9.154;2024-03-29T07:16:23;144300.75;;;10.11;56.54
14689;BME280;7432;48.728;9.154;2024-03-29T07:18:49;144274.16;;;10.00;56.03
14689;BME280;7432;48.728;9.154;2024-03-29T07:21:16;144251.19;;;9.91;57.95
14689;BME280;7432;48.728;9.154;2024-03-29T07:23:42;144243.94;;;9.88;59.37
14689;BME280;7432;48.728;9.154;2024-03-29T07:26:08;144212.50;;;9.75;62.22
14689;BME280;7432;48.728;9.154;2024-03-29T07:28:36;144166.56;;;9.56;62.22
14689;BME280;7432;48.728;9.154;2024-03-29T07:31:07;144153.25;;;9.50;66.91
14689;BME280;7432;48.728;9.154;2024-03-29T07:33:34;144124.22;;;9.38;67.96
14689;BME280;7432;48.728;9.154;2024-03-29T07:36:01;144057.72;;;9.10;70.38
14689;BME280;7432;48.728;9.154;2024-03-29T07:38:28;143974.34;;;8.75;74.64
14689;BME280;7432;48.728;9.154;2024-03-29T07:40:55;143939.28;;;8.61;79.93
14689;BME280;7432;48.728;9.154;2024-03-29T07:43:22;143874.06;;;8.33;82.89
14689;BME280;7432;48.728;9.154;2024-03-29T07:45:48;143869.25;;;8.31;85.62
14689;BME280;7432;48.728;9.154;2024-03-29T07:48:17;143840.22;;;8.19;83.25
14689;BME280;7432;48.728;9.154;2024-03-29T07:50:45;143835.38;;;8.17;86.21
14689;BME280;7432;48.728;9.154;2024-03-29T07:53:11;143820.91;;;8.11;88.19
14689;BME280;7432;48.728;9.154;2024-03-29T07:55:39;143823.31;;;8.12;89.79
14689;BME280;7432;48.728;9.154;2024-03-29T07:58:06;143822.09;;;8.12;90.36
14689;BME280;7432;48.728;9.154;2024-03-29T08:00:34;143789.47;;;7.98;90.37
14689;BME280;7432;48.728;9.154;2024-03-29T08:03:01;143810.00;;;8.07;89.39
14689;BME280;7432;48.728;9.154;2024-03-29T08:05:29;143806.41;;;8.05;91.49
14689;BME280;7432;48.728;9.154;2024-03-29T08:07:55;143810.00;;;8.07;92.06
14689;BME280;7432;48.728;9.154;2024-03-29T08:10:21;143805.19;;;8.05;93.12
14689;BME280;7432;48.728;9.154;2024-03-29T08:12:48;143805.19;;;8.05;93.52
14689;BME280;7432;48.728;9.154;2024-03-29T08:15:14;143805.19;;;8.05;93.60
14689;BME280;7432;48.728;9.154;2024-03-29T08:17:43;143799.16;;;8.02;94.67
14689;BME280;7432;48.728;9.154;2024-03-29T08:20:10;143808.81;;;8.06;96.08
14689;BME280;7432;48.728;9.154;2024-03-29T08:22:37;143797.94;;;8.02;95.95
14689;BME280;7432;48.728;9.154;2024-03-29T08:25:04;143814.84;;;8.09;96.49
14689;BME280;7432;48.728;9.154;2024-03-29T08:27:31;143816.06;;;8.09;96.49
14689;BME280;7432;48.728;9.154;2024-03-29T08:29:58;143822.09;;;8.12;97.33
14689;BME280;7432;48.728;9.154;2024-03-29T08:32:24;143816.06;;;8.09;96.22
14689;BME280;7432;48.728;9.154;2024-03-29T08:34:51;143824.50;;;8.13;95.57
14689;BME280;7432;48.728;9.154;2024-03-29T08:37:18;143819.69;;;8.11;96.17
14689;BME280;7432;48.728;9.154;2024-03-29T08:39:46;143806.41;;;8.05;96.68
14689;BME280;7432;48.728;9.154;2024-03-29T08:42:12;143813.66;;;8.08;96.74
14689;BME280;7432;48.728;9.154;2024-03-29T08:44:39;143841.41;;;8.20;96.62
14689;BME280;7432;48.728;9.154;2024-03-29T08:47:05;143863.22;;;8.29;96.21
14689;BME280;7432;48.728;9.154;2024-03-29T08:49:32;143878.94;;;8.36;96.65
14689;BME280;7432;48.728;9.154;2024-03-29T08:51:58;143882.53;;;8.37;97.53
14689;BME280;7432;48.728;9.154;2024-03-29T08:54:27;143895.81;;;8.43;97.33
14689;BME280;7432;48.728;9.154;2024-03-29T08:56:55;143906.69;;;8.47;97.78
14689;BME280;7432;48.728;9.154;2024-03-29T08:59:22;143909.09;;;8.48;99.09
14689;BME280;7432;48.728;9.154;2024-03-29T09:01:48;143926.00;;;8.55;98.36
14689;BME280;7432;48.728;9.154;2024-03-29T09:04:15;143955.03;;;8.67;98.34
14689;BME280;7432;48.728;9.154;2024-03-29T09:06:41;143976.78;;;8.76;98.50
14689;BME280;7432;48.728;9.154;2024-03-29T09:09:08;144016.66;;;8.93;98.16
14689;BME280;7432;48.728;9.154;2024-03-29T09:11:35;144049.28;;;9.07;97.83
14689;BME280;7432;48.728;9.154;2024-03-29T09:14:03;144106.09;;;9.30;98.40
14689;BME280;7432;48.728;9.154;2024-03-29T09:16:29;144135.13;;;9.42;97.49
14689;BME280;7432;48.728;9.154;2024-03-29T09:18:56;144165.31;;;9.55;97.09
14689;BME280;7432;48.728;9.154;2024-03-29T09:21:23;144173.81;;;9.59;97.49
14689;BME280;7432;48.728;9.154;2024-03-29T09:23:49;144193.16;;;9.67;96.54
14689;BME280;7432;48.728;9.154;2024-03-29T09:26:18;144193.16;;;9.67;97.40
14689;BME280;7432;48.728;9.154;2024-03-29T09:28:44;144200.41;;;9.70;97.52
14689;BME280;7432;48.728;9.154;2024-03-29T09:31:12;144219.75;;;9.78;98.93
14689;BME280;7432;48.728;9.154;2024-03-29T09:33:38;144228.19;;;9.81;98.68
14689;BME280;7432;48.728;9.154;2024-03-29T09:36:05;144242.72;;;9.87;99.87
14689;BME280;7432;48.728;9.154;2024-03-29T09:38:32;144242.72;;;9.87;100.00
14689;BME280;7432;48.728;9.154;2024-03-29T09:41:05;144248.75;;;9.90;100.00
14689;BME280;7432;48.728;9.154;2024-03-29T09:43:34;144260.84;;;9.95;100.00
14689;BME280;7432;48.728;9.154;2024-03-29T09:46:01;144298.38;;;10.10;100.00
14689;BME280;7432;48.728;9.154;2024-03-29T09:48:29;144333.47;;;10.25;98.12
14689;BME280;7432;48.728;9.154;2024-03-29T09:51:03;144397.59;;;10.52;95.45
14689;BME280;7432;48.728;9.154;2024-03-29T09:53:29;144476.25;;;10.85;94.33
14689;BME280;7432;48.728;9.154;2024-03-29T09:55:56;144523.47;;;11.04;91.79
14689;BME280;7432;48.728;9.154;2024-03-29T09:58:23;144573.13;;;11.25;90.16
14689;BME280;7432;48.728;9.154;2024-03-29T10:00:49;144588.84;;;11.31;88.72
14689;BME280;7432;48.728;9.154;2024-03-29T10:03:16;144581.56;;;11.28;88.08
14689;BME280;7432;48.728;9.154;2024-03-29T10:05:45;144632.47;;;11.50;87.59
14689;BME280;7432;48.728;9.154;2024-03-29T10:08:13;144665.16;;;11.63;85.61
14689;BME280;7432;48.728;9.154;2024-03-29T10:10:40;144697.91;;;11.77;85.90
14689;BME280;7432;48.728;9.154;2024-03-29T10:13:07;144708.81;;;11.81;86.56
14689;BME280;7432;48.728;9.154;2024-03-29T10:15:33;144740.28;;;11.95;88.26
14689;BME280;7432;48.728;9.154;2024-03-29T10:18:03;144821.47;;;12.28;87.05
14689;BME280;7432;48.728;9.154;2024-03-29T10:20:29;144871.13;;;12.49;86.94
14689;BME280;7432;48.728;9.154;2024-03-29T10:22:57;144989.94;;;12.98;80.08
14689;BME280;7432;48.728;9.154;2024-03-29T10:25:27;145152.47;;;13.66;77.73
14689;BME280;7432;48.728;9.154;2024-03-29T10:27:57;145216.81;;;13.93;77.14
14689;BME280;7432;48.728;9.154;2024-03-29T10:30:24;145203.47;;;13.87;76.99
14689;BME280;7432;48.728;9.154;2024-03-29T10:32:51;145062.75;;;13.29;79.83
14689;BME280;7432;48.728;9.154;2024-03-29T10:35:19;145054.25;;;13.25;81.08
14689;BME280;7432;48.728;9.154;2024-03-29T10:37:45;145053.06;;;13.25;80.97
14689;BME280;7432;48.728;9.154;2024-03-29T10:40:13;145185.28;;;13.80;78.76
14689;BME280;7432;48.728;9.154;2024-03-29T10:42:43;145290.81;;;14.23;76.44
14689;BME280;7432;48.728;9.154;2024-03-29T10:45:10;145310.31;;;14.32;71.72
14689;BME280;7432;48.728;9.154;2024-03-29T10:47:37;145315.16;;;14.34;72.25
14689;BME280;7432;48.728;9.154;2024-03-29T10:50:08;145199.81;;;13.86;72.29
14689;BME280;7432;48.728;9.154;2024-03-29T10:52:36;145156.16;;;13.68;72.95
14689;BME280;7432;48.728;9.154;2024-03-29T10:55:04;145154.94;;;13.67;73.17
14689;BME280;7432;48.728;9.154;2024-03-29T10:57:33;145145.25;;;13.63;74.72
14689;BME280;7432;48.728;9.154;2024-03-29T11:00:03;145209.53;;;13.90;73.15
14689;BME280;7432;48.728;9.154;2024-03-29T11:02:35;145163.44;;;13.71;76.26
14689;BME280;7432;48.728;9.154;2024-03-29T11:05:08;145209.53;;;13.90;72.90
14689;BME280;7432;48.728;9.154;2024-03-29T11:07:39;145321.22;;;14.36;70.82
14689;BME280;7432;48.728;9.154;2024-03-29T11:10:10;145377.03;;;14.59;69.09
14689;BME280;7432;48.728;9.154;2024-03-29T11:12:45;145404.97;;;14.71;69.92
14689;BME280;7432;48.728;9.154;2024-03-29T11:15:19;145396.44;;;14.67;68.70
14689;BME280;7432;48.728;9.154;2024-03-29T11:17:48;145400.13;;;14.69;68.34
14689;BME280;7432;48.728;9.154;2024-03-29T11:20:16;145390.38;;;14.65;69.66
14689;BME280;7432;48.728;9.154;2024-03-29T11:22:49;145362.50;;;14.53;70.43
14689;BME280;7432;48.728;9.154;2024-03-29T11:25:16;145386.78;;;14.63;71.57
14689;BME280;7432;48.728;9.154;2024-03-29T11:27:44;145429.22;;;14.81;67.25
14689;BME280;7432;48.728;9.154;2024-03-29T11:30:16;145442.59;;;14.87;66.88
14689;BME280;7432;48.728;9.154;2024-03-29T11:32:43;145498.47;;;15.10;67.10
14689;BME280;7432;48.728;9.154;2024-03-29T11:35:14;145503.31;;;15.12;65.54
14689;BME280;7432;48.728;9.154;2024-03-29T11:37:40;145496.03;;;15.09;65.82
14689;BME280;7432;48.728;9.154;2024-03-29T11:40:10;145472.97;;;14.99;64.86
14689;BME280;7432;48.728;9.154;2024-03-29T11:42:38;145438.97;;;14.85;66.02
14689;BME280;7432;48.728;9.154;2024-03-29T11:45:06;145418.31;;;14.76;67.50
14689;BME280;7432;48.728;9.154;2024-03-29T11:47:36;145392.84;;;14.66;67.62
14689;BME280;7432;48.728;9.154;2024-03-29T11:50:02;145341.88;;;14.45;67.29
14689;BME280;7432;48.728;9.154;2024-03-29T11:52:29;145311.50;;;14.32;65.50
14689;BME280;7432;48.728;9.154;2024-03-29T11:54:55;145311.50;;;14.32;64.95
14689;BME280;7432;48.728;9.154;2024-03-29T11:57:22;145299.31;;;14.27;64.38
14689;BME280;7432;48.728;9.154;2024-03-29T11:59:49;145305.38;;;14.30;67.93
14689;BME280;7432;48.728;9.154;2024-03-29T12:02:17;145339.41;;;14.44;68.63
14689;BME280;7432;48.728;9.154;2024-03-29T12:04:43;145355.22;;;14.50;71.03
14689;BME280;7432;48.728;9.154;2024-03-29T12:07:10;145383.09;;;14.62;71.91
14689;BME280;7432;48.728;9.154;2024-03-29T12:09:37;145420.75;;;14.77;71.91
14689;BME280;7432;48.728;9.154;2024-03-29T12:12:05;145483.88;;;15.04;68.62
14689;BME280;7432;48.728;9.154;2024-03-29T12:14:35;145493.63;;;15.08;64.70
14689;BME280;7432;48.728;9.154;2024-03-29T12:17:08;145605.41;;;15.54;63.45
14689;BME280;7432;48.728;9.154;2024-03-29T12:19:36;145667.34;;;15.80;62.09
14689;BME280;7432;48.728;9.154;2024-03-29T12:22:04;145644.28;;;15.70;60.99
14689;BME280;7432;48.728;9.154;2024-03-29T12:24:30;145679.50;;;15.85;60.88
14689;BME280;7432;48.728;9.154;2024-03-29T12:26:57;145709.91;;;15.97;60.54
14689;BME280;7432;48.728;9.154;2024-03-29T12:29:23;145764.56;;;16.20;60.27
14689;BME280;7432;48.728;9.154;2024-03-29T12:31:56;145786.44;;;16.29;61.21
14689;BME280;7432;48.728;9.154;2024-03-29T12:34:23;145814.41;;;16.41;60.10
14689;BME280;7432;48.728;9.154;2024-03-29T12:36:50;145836.31;;;16.50;58.16
14689;BME280;7432;48.728;9.154;2024-03-29T12:39:17;145768.22;;;16.22;58.64
14689;BME280;7432;48.728;9.154;2024-03-29T12:41:46;145829.03;;;16.47;59.94
14689;BME280;7432;48.728;9.154;2024-03-29T12:44:12;145874.03;;;16.66;59.87
14689;BME280;7432;48.728;9.154;2024-03-29T12:46:39;145921.47;;;16.85;58.44
14689;BME280;7432;48.728;9.154;2024-03-29T12:49:05;145950.63;;;16.97;59.75
14689;BME280;7432;48.728;9.154;2024-03-29T12:51:32;145972.53;;;17.06;60.68
14689;BME280;7432;48.728;9.154;2024-03-29T12:54:02;145987.13;;;17.12;62.54
14689;BME280;7432;48.728;9.154;2024-03-29T12:56:29;145889.81;;;16.72;62.55
14689;BME280;7432;48.728;9.154;2024-03-29T12:58:55;145798.59;;;16.34;64.81
14689;BME280;7432;48.728;9.154;2024-03-29T13:01:22;145730.56;;;16.06;64.73
14689;BME280;7432;48.728;9.154;2024-03-29T13:03:48;145672.25;;;15.82;65.90
14689;BME280;7432;48.728;9.154;2024-03-29T13:06:15;145760.94;;;16.19;65.55